Time;durP1;ratioP1;P1;durP2;ratioP2;P2;SDS_P1;SDS_P2;PMS_P1;PMS_P2;Temp;Humidity;BMP_temperature;BMP_pressure;BME280_temperature;BME280_humidity;BME280_pressure;Samples;Min_cycle;Max_cycle;Signal;HPM_P1;HPM_P2
2021/08/23 00:02:01;;;;;;;8.05;3.05;;;;;;;14.94;71.29;101068.20;1735941;81;21260;-57
2021/08/23 00:05:08;;;;;;;5.45;3.50;;;;;;;14.93;71.28;101066.50;1757768;80;21209;-57
2021/08/23 00:08:14;;;;;;;6.50;3.55;;;;;;;14.89;71.45;101072.90;1758546;80;21244;-58
2021/08/23 00:11:23;;;;;;;6.00;3.70;;;;;;;14.90;71.44;101073.22;1780885;80;21184;-58
2021/08/23 00:14:30;;;;;;;8.25;2.95;;;;;;;14.92;71.32;101074.44;1746630;80;21204;-58
2021/08/23 00:17:36;;;;;;;7.72;3.77;;;;;;;14.93;71.04;101077.02;1746693;81;21828;-58
2021/08/23 00:20:43;;;;;;;5.67;3.67;;;;;;;14.91;71.04;101076.84;1690812;84;21933;-58
2021/08/23 00:23:51;;;;;;;7.28;3.58;;;;;;;14.91;71.13;101075.47;1778746;79;21258;-59
2021/08/23 00:27:02;;;;;;;6.03;3.40;;;;;;;14.88;71.08;101075.84;1779890;80;21227;-59
2021/08/23 00:30:08;;;;;;;7.42;3.67;;;;;;;14.84;71.15;101077.28;1778135;79;21242;-59
2021/08/23 00:33:14;;;;;;;6.55;3.83;;;;;;;14.80;71.27;101069.89;1744078;80;21233;-57
2021/08/23 00:36:21;;;;;;;10.30;3.33;;;;;;;14.80;71.31;101068.52;1737689;82;21201;-58
2021/08/23 00:39:27;;;;;;;5.60;3.37;;;;;;;14.79;71.34;101063.19;1737587;81;21204;-58
2021/08/23 00:42:33;;;;;;;4.65;3.00;;;;;;;14.77;71.39;101070.78;1737623;82;21213;-58
2021/08/23 00:45:38;;;;;;;7.92;3.55;;;;;;;14.68;71.51;101067.23;1737674;82;21343;-58
2021/08/23 00:48:46;;;;;;;7.30;3.72;;;;;;;14.61;71.84;101070.91;1738247;81;21324;-58
2021/08/23 00:51:51;;;;;;;8.03;3.83;;;;;;;14.54;72.20;101074.09;1737861;82;21213;-58
2021/08/23 00:54:57;;;;;;;5.65;2.98;;;;;;;14.52;72.49;101074.28;1737908;81;21395;-58
2021/08/23 00:58:04;;;;;;;6.90;3.12;;;;;;;14.48;72.62;101072.92;1738164;82;21360;-58
2021/08/23 01:01:17;;;;;;;6.37;3.30;;;;;;;14.47;72.61;101073.11;1737775;82;21336;-58
2021/08/23 01:04:39;;;;;;;7.17;3.12;;;;;;;14.42;72.54;101072.28;1737709;81;21237;-58
2021/08/23 01:07:55;;;;;;;5.60;3.10;;;;;;;14.39;72.62;101074.54;1737693;82;21213;-58
2021/08/23 01:11:02;;;;;;;7.30;3.25;;;;;;;14.37;72.69;101074.73;1737805;82;21209;-58
2021/08/23 01:14:07;;;;;;;6.28;3.67;;;;;;;14.33;72.77;101074.77;1738385;81;21398;-58
2021/08/23 01:17:13;;;;;;;6.30;3.25;;;;;;;14.31;72.84;101081.48;1738166;82;21344;-58
2021/08/23 01:20:19;;;;;;;9.25;3.75;;;;;;;14.30;72.87;101078.41;1737259;81;21414;-59
2021/08/23 01:23:25;;;;;;;6.55;3.67;;;;;;;14.25;72.94;101079.47;1737294;81;21920;-59
2021/08/23 01:26:40;;;;;;;7.53;4.00;;;;;;;14.19;73.02;101089.80;1737643;82;21343;-59
2021/08/23 01:30:12;;;;;;;8.80;4.20;;;;;;;14.12;73.25;101079.17;1737730;81;21269;-59
2021/08/23 01:33:18;;;;;;;7.05;3.62;;;;;;;14.09;73.46;101079.03;1737468;81;21340;-58
2021/08/23 01:36:23;;;;;;;5.45;3.70;;;;;;;14.10;73.50;101077.97;1737446;82;21324;-59
2021/08/23 01:39:30;;;;;;;9.33;4.08;;;;;;;14.10;73.50;101072.98;1737671;81;21458;-59
2021/08/23 01:42:35;;;;;;;6.33;3.35;;;;;;;14.11;73.41;101074.71;1737850;82;21390;-59
2021/08/23 01:45:42;;;;;;;9.25;3.60;;;;;;;14.10;73.36;101073.84;1737688;82;21351;-59
2021/08/23 01:48:42;;;;;;;7.75;3.58;;;;;;;14.05;73.44;101079.58;1737416;81;21217;-58
2021/08/23 01:51:48;;;;;;;8.08;3.58;;;;;;;13.99;73.66;101078.90;1737705;82;21347;-59
2021/08/23 01:54:53;;;;;;;8.03;3.50;;;;;;;13.92;73.97;101079.30;1737442;81;21459;-59
2021/08/23 01:57:59;;;;;;;10.48;3.70;;;;;;;13.88;74.26;101076.55;1737866;82;21248;-59
2021/08/23 02:01:04;;;;;;;8.78;3.62;;;;;;;13.84;74.41;101075.21;1737488;82;21383;-59
2021/08/23 02:04:10;;;;;;;9.10;3.45;;;;;;;13.84;74.63;101074.70;1738079;81;21418;-59
2021/08/23 02:07:15;;;;;;;7.42;3.67;;;;;;;13.84;74.74;101073.83;1737526;82;21351;-58
2021/08/23 02:10:21;;;;;;;6.80;3.80;;;;;;;13.87;74.69;101071.59;1737317;81;21770;-58
2021/08/23 02:13:26;;;;;;;6.53;3.60;;;;;;;13.89;74.50;101070.86;1737629;81;22699;-59
2021/08/23 02:16:38;;;;;;;6.35;3.55;;;;;;;13.85;74.42;101075.03;1737843;82;21837;-58
2021/08/23 02:19:41;;;;;;;7.17;3.83;;;;;;;13.79;74.59;101078.51;1737408;81;21359;-58
2021/08/23 02:22:48;;;;;;;8.03;3.40;;;;;;;13.77;74.78;101079.70;1737321;82;21355;-58
2021/08/23 02:25:53;;;;;;;5.78;3.95;;;;;;;13.73;74.94;101080.58;1737404;82;21332;-59
2021/08/23 02:28:58;;;;;;;7.92;4.12;;;;;;;13.69;75.08;101078.36;1737164;81;21390;-58
2021/08/23 02:32:02;;;;;;;6.50;3.55;;;;;;;13.65;75.24;101081.16;1737354;82;21714;-59
2021/08/23 02:35:08;;;;;;;8.20;4.25;;;;;;;13.62;75.46;101081.51;1739036;80;21908;-59
2021/08/23 02:38:13;;;;;;;15.15;4.15;;;;;;;13.61;75.76;101076.52;1741829;82;21224;-59
2021/08/23 02:41:19;;;;;;;8.65;4.17;;;;;;;13.62;75.88;101083.72;1708569;84;21434;-59
2021/08/23 02:44:24;;;;;;;7.15;4.05;;;;;;;13.58;75.49;101075.50;1769327;79;21255;-58
2021/08/23 02:47:29;;;;;;;7.15;3.95;;;;;;;13.57;75.22;101083.42;1793954;79;21351;-60
2021/08/23 02:50:36;;;;;;;6.85;4.05;;;;;;;13.60;75.50;101091.31;1737021;82;21709;-58
2021/08/23 02:53:42;;;;;;;8.48;4.25;;;;;;;13.60;75.36;101091.83;1738842;81;21861;-59
2021/08/23 02:56:48;;;;;;;9.15;4.53;;;;;;;13.60;75.45;101097.33;1737385;82;21323;-60
2021/08/23 02:59:53;;;;;;;6.45;4.33;;;;;;;13.60;75.22;101095.95;1745024;81;21371;-60
2021/08/23 03:02:58;;;;;;;12.23;3.92;;;;;;;13.64;75.06;101100.08;1768114;79;21315;-59
2021/08/23 03:06:04;;;;;;;10.23;4.17;;;;;;;13.67;75.09;101098.34;1723751;82;21189;-63
2021/08/23 03:09:11;;;;;;;11.68;4.30;;;;;;;13.71;74.67;101085.42;1719668;82;21386;-62
2021/08/23 03:12:16;;;;;;;10.70;4.40;;;;;;;13.73;74.19;101094.87;1754600;82;21276;-62
2021/08/23 03:15:23;;;;;;;9.43;4.05;;;;;;;13.76;74.10;101094.52;1747108;81;21255;-60
2021/08/23 03:18:29;;;;;;;12.50;4.78;;;;;;;13.76;74.08;101087.13;1746849;82;21900;-60
2021/08/23 03:21:35;;;;;;;10.38;4.58;;;;;;;13.79;73.99;101089.52;1731425;83;21367;-59
2021/08/23 03:24:41;;;;;;;14.00;4.67;;;;;;;13.79;73.27;101094.16;1745955;81;21240;-59
2021/08/23 03:27:48;;;;;;;10.68;4.20;;;;;;;13.77;72.87;101094.84;1798673;79;21694;-60
2021/08/23 03:30:56;;;;;;;8.58;3.98;;;;;;;13.79;72.57;101088.65;1785804;79;21319;-59
2021/08/23 03:34:01;;;;;;;14.35;4.70;;;;;;;13.83;72.25;101089.48;1758636;79;21307;-59
2021/08/23 03:37:07;;;;;;;10.10;4.20;;;;;;;13.88;71.95;101088.42;1779740;79;22019;-59
2021/08/23 03:40:17;;;;;;;11.70;3.72;;;;;;;13.90;71.83;101090.49;1786562;79;21209;-58
2021/08/23 03:43:23;;;;;;;8.25;4.70;;;;;;;13.93;71.52;101098.89;1788071;79;21324;-59
2021/08/23 03:46:32;;;;;;;8.33;4.20;;;;;;;13.99;71.31;101099.55;1799073;79;21165;-58
2021/08/23 03:49:37;;;;;;;8.93;4.62;;;;;;;14.00;71.45;101097.16;1766423;79;21777;-58
2021/08/23 03:52:42;;;;;;;15.55;4.92;;;;;;;14.02;71.68;101099.18;1766080;80;21845;-59
2021/08/23 03:55:47;;;;;;;13.40;4.80;;;;;;;14.06;72.07;101095.91;1766473;80;21202;-59
2021/08/23 03:58:55;;;;;;;11.05;4.58;;;;;;;14.19;72.08;101091.19;1767371;79;21218;-58
2021/08/23 04:02:00;;;;;;;7.20;3.98;;;;;;;14.31;71.97;101093.88;1772844;79;21222;-59
2021/08/23 04:05:06;;;;;;;12.73;4.42;;;;;;;14.39;71.47;101093.31;1767525;79;21375;-58
2021/08/23 04:08:12;;;;;;;10.25;4.92;;;;;;;14.44;70.81;101087.25;1743580;81;21339;-59
2021/08/23 04:11:21;;;;;;;7.80;4.08;;;;;;;14.49;70.51;101087.02;1730243;81;21197;-59
2021/08/23 04:14:27;;;;;;;9.98;4.65;;;;;;;14.59;70.11;101095.03;1765202;81;21339;-59
2021/08/23 04:17:33;;;;;;;11.03;5.20;;;;;;;14.70;69.95;101091.84;1768435;79;21328;-60
2021/08/23 04:20:38;;;;;;;8.55;3.90;;;;;;;14.84;69.73;101094.65;1767810;80;21821;-60
2021/08/23 04:23:43;;;;;;;10.28;4.90;;;;;;;15.03;69.36;101093.80;1761517;80;21351;-59
2021/08/23 04:26:49;;;;;;;17.70;5.00;;;;;;;15.18;69.00;101100.19;1770647;79;21850;-59
2021/08/23 04:29:55;;;;;;;9.55;4.15;;;;;;;15.30;68.65;101095.39;1766625;80;21359;-59
2021/08/23 04:33:01;;;;;;;9.78;4.20;;;;;;;15.42;68.25;101093.93;1766728;80;21440;-59
2021/08/23 04:36:08;;;;;;;10.25;4.58;;;;;;;15.49;67.90;101103.14;1779790;79;21817;-60
2021/08/23 04:39:14;;;;;;;7.90;4.30;;;;;;;15.58;68.01;101099.27;1781483;78;21205;-60
2021/08/23 04:42:20;;;;;;;7.47;4.37;;;;;;;15.67;67.88;101105.01;1771610;80;21265;-59
2021/08/23 04:45:26;;;;;;;10.85;4.35;;;;;;;15.78;67.71;101100.90;1724785;82;21387;-59
2021/08/23 04:48:33;;;;;;;10.28;4.70;;;;;;;15.89;67.51;101095.75;1799913;78;21291;-60
2021/08/23 04:51:38;;;;;;;10.68;4.78;;;;;;;16.05;67.33;101097.42;1800588;79;21386;-59
2021/08/23 04:54:43;;;;;;;8.30;5.20;;;;;;;16.22;67.04;101101.70;1800623;78;21224;-60
2021/08/23 04:57:53;;;;;;;11.80;4.75;;;;;;;16.34;66.61;101105.13;1800348;79;21503;-59
2021/08/23 05:00:57;;;;;;;7.03;4.37;;;;;;;16.48;66.40;101099.76;1769221;80;21332;-60
2021/08/23 05:04:05;;;;;;;8.68;4.42;;;;;;;16.62;66.13;101108.00;1767937;80;21356;-60
2021/08/23 05:07:15;;;;;;;7.85;4.25;;;;;;;16.77;65.73;101112.08;1788364;80;21659;-59
2021/08/23 05:10:24;;;;;;;8.95;4.83;;;;;;;16.90;65.14;101109.45;1743826;82;21297;-60
2021/08/23 05:13:29;;;;;;;10.28;4.83;;;;;;;17.01;64.86;101108.39;1737105;82;21365;-60
2021/08/23 05:16:34;;;;;;;6.03;4.47;;;;;;;17.09;64.57;101104.09;1801183;79;21347;-58
2021/08/23 05:19:42;;;;;;;7.92;4.53;;;;;;;17.18;64.48;101106.16;1801467;79;21224;-59
2021/08/23 05:22:47;;;;;;;11.10;6.85;;;;;;;17.29;64.17;101098.69;1766425;81;21356;-59
2021/08/23 05:25:57;;;;;;;6.42;4.58;;;;;;;17.37;64.02;101105.46;1745802;81;21236;-60
2021/08/23 05:29:04;;;;;;;7.00;4.60;;;;;;;17.48;63.74;101106.31;1735867;82;21927;-59
2021/08/23 05:32:10;;;;;;;8.43;4.33;;;;;;;17.62;63.58;101101.18;1804392;79;21323;-59
2021/08/23 05:35:17;;;;;;;6.95;3.40;;;;;;;17.75;63.38;101099.88;1805121;78;21722;-61
2021/08/23 05:38:23;;;;;;;6.67;4.10;;;;;;;17.90;62.55;101102.00;1768690;79;21319;-58
2021/08/23 05:41:29;;;;;;;8.23;3.90;;;;;;;18.01;62.15;101095.87;1767239;81;21228;-58
2021/08/23 05:44:34;;;;;;;6.35;3.77;;;;;;;18.16;62.10;101098.45;1767599;80;21888;-59
2021/08/23 05:47:42;;;;;;;7.40;3.77;;;;;;;18.30;61.30;101109.94;1767588;80;21287;-59
2021/08/23 05:50:51;;;;;;;8.10;4.00;;;;;;;18.39;60.50;101102.64;1767852;80;21343;-59
2021/08/23 05:53:56;;;;;;;6.10;3.58;;;;;;;18.50;60.07;101103.95;1763782;80;21335;-59
2021/08/23 05:57:03;;;;;;;8.63;4.10;;;;;;;18.62;60.00;101100.86;1762439;81;21777;-60
2021/08/23 06:00:09;;;;;;;8.93;4.00;;;;;;;18.75;60.05;101096.20;1761986;81;21378;-60
2021/08/23 06:03:15;;;;;;;7.50;3.60;;;;;;;18.90;59.76;101101.01;1742636;81;21200;-60
2021/08/23 06:06:21;;;;;;;6.70;4.17;;;;;;;19.01;59.75;101094.82;1747731;81;21315;-58
2021/08/23 06:09:27;;;;;;;10.95;6.28;;;;;;;19.12;59.60;101099.73;1736595;81;21383;-58
2021/08/23 06:12:34;;;;;;;6.15;4.22;;;;;;;19.24;59.12;101098.56;1758222;81;21248;-60
2021/08/23 06:15:41;;;;;;;8.88;5.62;;;;;;;19.36;58.54;101097.42;1762718;81;21312;-59
2021/08/23 06:18:46;;;;;;;10.90;4.90;;;;;;;19.48;58.38;101085.95;1762220;81;21358;-60
2021/08/23 06:21:53;;;;;;;7.28;4.62;;;;;;;19.61;58.62;101097.05;1744472;81;21370;-59
2021/08/23 06:24:59;;;;;;;13.55;3.70;;;;;;;19.73;58.01;101101.72;1753824;81;21331;-59
2021/08/23 06:28:06;;;;;;;7.83;4.42;;;;;;;19.83;57.60;101094.31;1762462;81;21313;-59
2021/08/23 06:31:14;;;;;;;7.65;3.70;;;;;;;19.94;57.57;101093.63;1761096;81;21816;-60
2021/08/23 06:34:21;;;;;;;11.57;4.60;;;;;;;20.04;57.43;101097.64;1731575;81;21363;-60
2021/08/23 06:37:28;;;;;;;6.40;3.58;;;;;;;20.18;56.69;101092.93;1731556;83;21193;-59
2021/08/23 06:40:33;;;;;;;12.40;4.12;;;;;;;20.29;56.26;101095.02;1751121;79;21354;-59
2021/08/23 06:43:39;;;;;;;9.88;5.15;;;;;;;20.40;55.64;101095.17;1804478;78;21884;-59
2021/08/23 06:46:44;;;;;;;9.98;3.83;;;;;;;20.53;55.89;101090.07;1766759;81;21291;-59
2021/08/23 06:49:51;;;;;;;11.70;4.55;;;;;;;20.65;55.36;101086.88;1805389;78;21355;-59
2021/08/23 06:52:57;;;;;;;6.25;4.05;;;;;;;20.78;53.15;101087.66;1801053;79;21181;-58
2021/08/23 06:56:04;;;;;;;6.37;2.90;;;;;;;20.88;52.29;101078.80;1762694;81;21173;-60
2021/08/23 06:59:11;;;;;;;6.92;2.30;;;;;;;21.00;52.14;101070.58;1763347;79;21743;-58
2021/08/23 07:02:17;;;;;;;6.58;2.20;;;;;;;21.11;50.88;101073.48;1799796;79;21214;-59
2021/08/23 07:05:25;;;;;;;9.18;3.00;;;;;;;21.21;50.47;101072.44;1763172;81;21558;-59
2021/08/23 07:08:31;;;;;;;4.47;2.25;;;;;;;21.33;50.09;101078.09;1762189;80;21185;-55
2021/08/23 07:11:38;;;;;;;4.17;2.17;;;;;;;21.43;50.33;101076.52;1726213;81;21251;-53
2021/08/23 07:14:43;;;;;;;6.25;2.65;;;;;;;21.56;50.40;101078.31;1711320;82;21229;-54
2021/08/23 07:17:48;;;;;;;6.37;2.83;;;;;;;21.64;49.88;101073.30;1741379;82;21185;-55
2021/08/23 07:20:55;;;;;;;5.20;1.95;;;;;;;21.74;49.05;101069.97;1717540;82;21715;-54
2021/08/23 07:24:01;;;;;;;6.87;2.33;;;;;;;21.84;49.13;101075.88;1689054;83;21779;-55
2021/08/23 07:27:07;;;;;;;5.80;2.15;;;;;;;21.93;49.72;101077.25;1686149;84;21285;-55
2021/08/23 07:30:14;;;;;;;9.95;4.42;;;;;;;22.02;47.60;101078.67;1788951;79;21208;-56
2021/08/23 07:33:19;;;;;;;11.73;6.28;;;;;;;22.11;46.74;101080.05;1787321;78;21208;-56
2021/08/23 07:36:25;;;;;;;6.03;2.83;;;;;;;22.19;46.94;101075.01;1758805;80;21182;-56
2021/08/23 07:39:30;;;;;;;4.37;2.08;;;;;;;22.27;46.16;101076.62;1758368;80;21248;-55
2021/08/23 07:42:35;;;;;;;6.33;2.95;;;;;;;22.35;45.58;101072.11;1761022;79;21540;-55
2021/08/23 07:45:41;;;;;;;8.05;4.65;;;;;;;22.43;45.80;101075.11;1728797;82;21587;-55
2021/08/23 07:48:46;;;;;;;5.50;2.85;;;;;;;22.50;45.95;101078.66;1740059;80;21200;-56
2021/08/23 07:51:52;;;;;;;7.60;3.62;;;;;;;22.56;45.38;101075.81;1734206;80;21169;-55
2021/08/23 07:54:58;;;;;;;5.80;3.00;;;;;;;22.62;45.31;101074.00;1736840;80;21299;-56
2021/08/23 07:58:03;;;;;;;5.55;3.20;;;;;;;22.69;45.77;101070.01;1733663;80;21746;-56
2021/08/23 08:01:08;;;;;;;8.35;6.00;;;;;;;22.78;44.73;101067.20;1737842;82;21835;-57
2021/08/23 08:04:14;;;;;;;9.03;3.80;;;;;;;22.85;45.13;101069.33;1739126;81;21329;-54
2021/08/23 08:07:21;;;;;;;12.28;7.95;;;;;;;22.92;44.22;101072.02;1713167;82;21208;-56
2021/08/23 08:10:26;;;;;;;5.12;2.70;;;;;;;22.96;44.02;101066.27;1741480;80;21205;-59
2021/08/23 08:13:33;;;;;;;3.92;2.10;;;;;;;23.01;43.23;101070.56;1795504;78;21557;-59
2021/08/23 08:16:39;;;;;;;3.25;1.95;;;;;;;23.05;42.39;101073.20;1767419;78;21215;-59
2021/08/23 08:19:44;;;;;;;11.55;7.95;;;;;;;23.09;42.40;101070.22;1767082;79;21208;-60
2021/08/23 08:22:49;;;;;;;3.90;2.30;;;;;;;23.14;42.87;101066.16;1787872;79;21228;-60
2021/08/23 08:25:54;;;;;;;3.35;2.35;;;;;;;23.19;41.74;101071.34;1791505;78;21197;-59
2021/08/23 08:29:01;;;;;;;11.73;9.05;;;;;;;23.28;41.43;101063.47;1755614;80;22206;-60
2021/08/23 08:32:07;;;;;;;9.75;2.60;;;;;;;23.34;41.55;101068.94;1758913;79;21240;-60
2021/08/23 08:35:12;;;;;;;3.90;1.90;;;;;;;23.41;40.79;101064.63;1759093;80;21440;-60
2021/08/23 08:38:17;;;;;;;2.75;1.80;;;;;;;23.49;41.14;101062.33;1760824;79;21467;-59
2021/08/23 08:41:23;;;;;;;6.05;2.87;;;;;;;23.56;40.67;101062.21;1757550;79;21216;-59
2021/08/23 08:44:29;;;;;;;4.92;2.08;;;;;;;23.59;40.78;101050.53;1769097;80;21201;-60
2021/08/23 08:47:34;;;;;;;5.90;2.87;;;;;;;23.59;40.15;101051.37;1796175;78;21197;-56
2021/08/23 08:50:40;;;;;;;5.42;2.67;;;;;;;23.64;40.19;101059.05;1774720;79;21576;-58
2021/08/23 08:53:47;;;;;;;3.42;2.12;;;;;;;23.71;40.16;101051.90;1788480;78;21793;-59
2021/08/23 08:56:54;;;;;;;3.12;2.08;;;;;;;23.76;39.07;101054.28;1791563;79;21181;-59
2021/08/23 09:00:02;;;;;;;4.97;3.33;;;;;;;23.83;38.51;101053.61;1757745;81;21224;-58
2021/08/23 09:03:09;;;;;;;8.30;3.40;;;;;;;23.92;38.75;101055.45;1758086;80;21216;-58
2021/08/23 09:06:14;;;;;;;3.85;2.30;;;;;;;23.99;38.67;101050.05;1760297;81;21803;-58
2021/08/23 09:09:21;;;;;;;5.40;3.27;;;;;;;24.05;37.50;101042.09;1753433;80;21534;-59
2021/08/23 09:12:29;;;;;;;5.03;3.00;;;;;;;24.12;38.06;101045.58;1762073;81;21586;-59
2021/08/23 09:15:34;;;;;;;6.28;3.52;;;;;;;24.20;37.98;101045.19;1766125;80;21516;-59
2021/08/23 09:18:40;;;;;;;6.22;2.60;;;;;;;24.26;38.27;101039.98;1764388;80;21213;-59
2021/08/23 09:21:46;;;;;;;5.62;3.27;;;;;;;24.34;38.09;101035.39;1761253;80;21567;-58
2021/08/23 09:24:51;;;;;;;10.48;5.20;;;;;;;24.43;37.36;101032.52;1782432;79;21192;-61
2021/08/23 09:27:58;;;;;;;6.25;3.45;;;;;;;24.49;36.68;101034.30;1768162;79;21288;-58
2021/08/23 09:31:10;;;;;;;5.15;3.17;;;;;;;24.54;35.59;101027.41;1775662;79;21741;-59
2021/08/23 09:34:18;;;;;;;3.77;2.55;;;;;;;24.59;35.52;101025.24;1800933;77;21452;-59
2021/08/23 09:37:32;;;;;;;5.50;2.47;;;;;;;24.63;36.90;101024.48;1755088;79;21174;-59
2021/08/23 09:40:39;;;;;;;8.35;6.15;;;;;;;24.71;36.96;101029.70;1761134;79;21209;-58
2021/08/23 09:43:45;;;;;;;5.22;3.30;;;;;;;24.80;36.83;101039.39;1759844;79;21232;-58
2021/08/23 09:46:51;;;;;;;4.42;3.47;;;;;;;24.83;37.05;101033.27;1723383;82;21238;-59
2021/08/23 09:49:58;;;;;;;6.15;3.95;;;;;;;24.91;36.94;101037.06;1725630;81;21519;-59
2021/08/23 09:53:14;;;;;;;7.05;4.40;;;;;;;24.98;36.78;101033.55;1781863;79;21729;-60
2021/08/23 09:56:19;;;;;;;4.92;3.35;;;;;;;25.01;36.32;101034.44;1789152;79;21196;-59
2021/08/23 09:59:29;;;;;;;9.20;5.92;;;;;;;25.06;36.07;101035.07;1800419;79;21256;-59
2021/08/23 10:02:34;;;;;;;4.60;3.25;;;;;;;25.13;36.15;101036.30;1767843;79;21209;-59
2021/08/23 10:05:41;;;;;;;7.67;4.12;;;;;;;25.23;35.84;101029.48;1726718;81;21177;-59
2021/08/23 10:08:46;;;;;;;4.75;2.30;;;;;;;25.33;35.57;101028.21;1701147;81;21709;-58
2021/08/23 10:11:52;;;;;;;4.92;3.05;;;;;;;25.44;35.95;101028.70;1740847;81;22047;-59
2021/08/23 10:14:57;;;;;;;4.92;2.50;;;;;;;25.47;34.12;101030.44;1740577;80;21845;-59
2021/08/23 10:18:02;;;;;;;10.65;7.10;;;;;;;25.49;33.57;101034.38;1738889;80;21756;-59
2021/08/23 10:21:09;;;;;;;6.47;4.80;;;;;;;25.51;33.38;101040.59;1732946;82;21285;-57
2021/08/23 10:24:15;;;;;;;4.12;2.37;;;;;;;25.53;33.49;101039.79;1736015;80;21345;-56
2021/08/23 10:27:29;;;;;;;4.90;2.30;;;;;;;25.61;33.49;101042.16;1793714;79;21754;-57
2021/08/23 10:30:33;;;;;;;8.25;5.30;;;;;;;25.67;32.72;101031.30;1777475;79;22030;-57
2021/08/23 10:33:46;;;;;;;4.40;3.10;;;;;;;25.72;33.45;101036.98;1766965;79;21302;-59
2021/08/23 10:36:55;;;;;;;4.75;3.08;;;;;;;25.76;33.47;101044.62;1723141;82;21173;-57
2021/08/23 10:40:08;;;;;;;5.37;3.00;;;;;;;25.80;33.10;101043.55;1792776;78;21188;-58
2021/08/23 10:43:23;;;;;;;;;;;;;;;25.86;33.60;101041.93;1794981;78;21285;-58
2021/08/23 10:46:47;;;;;;;5.62;3.25;;;;;;;25.97;32.58;101036.75;1802932;79;20225;-57
2021/08/23 10:49:54;;;;;;;7.53;5.65;;;;;;;26.07;33.24;101036.92;1804873;78;21545;-57
2021/08/23 10:53:01;;;;;;;12.43;8.83;;;;;;;26.21;33.35;101034.00;1776593;79;21483;-58
2021/08/23 10:56:05;;;;;;;14.80;10.75;;;;;;;26.36;32.55;101037.55;1775482;79;21209;-58
2021/08/23 10:59:25;;;;;;;5.80;3.83;;;;;;;26.43;32.34;101035.39;1806094;78;22127;-58
2021/08/23 11:02:39;;;;;;;10.50;7.65;;;;;;;26.60;32.54;101034.73;1799296;79;22040;-59
2021/08/23 11:05:47;;;;;;;4.22;2.67;;;;;;;26.70;32.17;101032.06;1748278;79;21225;-60
2021/08/23 11:08:55;;;;;;;5.53;3.98;;;;;;;26.85;31.91;101027.13;1753189;81;21251;-59
2021/08/23 11:12:15;;;;;;;5.95;3.87;;;;;;;27.02;31.43;101032.91;1730897;81;21194;-58
2021/08/23 11:15:33;;;;;;;5.97;2.12;;;;;;;27.13;30.77;101034.69;1762904;80;21203;-60
2021/08/23 11:18:41;;;;;;;4.42;2.30;;;;;;;27.13;30.95;101038.91;1773064;79;21698;-59
2021/08/23 11:21:47;;;;;;;6.17;2.70;;;;;;;27.32;32.37;101033.18;1759945;79;21189;-60
2021/08/23 11:24:54;;;;;;;6.10;2.95;;;;;;;27.40;31.65;101025.64;1784451;79;21204;-59
2021/08/23 11:28:02;;;;;;;4.70;2.17;;;;;;;27.36;31.62;101016.07;1791988;79;21589;-59
2021/08/23 11:31:08;;;;;;;3.45;2.20;;;;;;;27.17;30.98;101023.20;1796367;78;21220;-60
2021/08/23 11:34:14;;;;;;;2.62;1.90;;;;;;;26.97;31.29;101020.79;1756290;81;21606;-58
2021/08/23 11:37:23;;;;;;;3.55;2.17;;;;;;;26.89;31.36;101027.75;1713886;82;21757;-58
2021/08/23 11:40:28;;;;;;;8.85;4.62;;;;;;;26.74;31.37;101020.57;1729345;82;21921;-59
2021/08/23 11:43:34;;;;;;;6.67;3.50;;;;;;;26.64;31.79;101013.44;1775465;78;21628;-57
2021/08/23 11:46:39;;;;;;;4.62;2.37;;;;;;;26.65;32.14;101022.72;1758866;79;21167;-60
2021/08/23 11:49:44;;;;;;;6.85;4.10;;;;;;;26.77;31.57;101015.82;1722134;81;21205;-59
2021/08/23 11:52:50;;;;;;;8.15;5.67;;;;;;;26.89;31.81;100998.25;1763526;80;21747;-60
2021/08/23 11:55:56;;;;;;;4.92;3.60;;;;;;;26.96;31.65;100997.99;1758602;80;22042;-59
2021/08/23 11:59:02;;;;;;;5.08;3.15;;;;;;;27.01;32.01;100993.83;1760405;80;21173;-57
2021/08/23 12:02:19;;;;;;;5.00;3.20;;;;;;;27.09;31.87;100990.52;1757805;79;21178;-59
2021/08/23 12:05:27;;;;;;;2.90;1.92;;;;;;;27.22;32.55;100983.89;1762084;80;21216;-59
2021/08/23 12:08:37;;;;;;;3.00;1.80;;;;;;;27.42;31.38;100984.04;1760606;79;21198;-60
2021/08/23 12:11:50;;;;;;;3.30;2.25;;;;;;;27.60;31.12;100979.37;1739746;81;21191;-59
2021/08/23 12:15:06;;;;;;;2.77;2.00;;;;;;;27.75;30.87;100983.66;1738862;81;21252;-58
2021/08/23 12:18:19;;;;;;;5.37;2.12;;;;;;;27.87;30.34;100972.17;1734748;81;21193;-59
2021/08/23 12:21:39;;;;;;;4.55;2.90;;;;;;;27.76;30.03;100975.52;1735164;82;21212;-59
2021/08/23 12:24:46;;;;;;;6.00;2.58;;;;;;;27.55;30.19;100970.91;1736333;81;21793;-59
2021/08/23 12:27:58;;;;;;;3.02;2.27;;;;;;;27.36;31.53;100962.63;1764242;81;21205;-59
2021/08/23 12:31:13;;;;;;;11.80;5.95;;;;;;;27.23;32.15;100960.81;1764892;80;21743;-58
2021/08/23 12:34:24;;;;;;;9.68;6.55;;;;;;;27.11;31.79;100958.22;1763429;81;21174;-58
2021/08/23 12:37:30;;;;;;;7.65;5.70;;;;;;;26.96;32.13;100964.27;1760871;81;21172;-59
2021/08/23 12:40:37;;;;;;;5.50;3.33;;;;;;;26.77;32.57;100963.84;1749900;81;21590;-58
2021/08/23 12:43:47;;;;;;;7.50;3.30;;;;;;;26.61;33.15;100956.93;1766180;79;21786;-57
2021/08/23 12:46:52;;;;;;;6.53;3.70;;;;;;;26.42;32.78;100959.26;1758926;79;21710;-59
2021/08/23 12:49:58;;;;;;;4.33;2.12;;;;;;;26.27;32.59;100962.75;1782812;79;21738;-59
2021/08/23 12:53:05;;;;;;;4.08;2.20;;;;;;;26.12;32.62;100956.13;1764358;81;21724;-59
2021/08/23 12:56:10;;;;;;;3.92;2.37;;;;;;;26.09;32.65;100951.05;1766329;80;21584;-58
2021/08/23 12:59:15;;;;;;;3.37;1.92;;;;;;;26.16;32.40;100956.73;1787002;79;21694;-59
2021/08/23 13:02:22;;;;;;;3.87;2.15;;;;;;;26.30;32.32;100954.38;1792005;79;21196;-58
2021/08/23 13:05:29;;;;;;;6.65;2.55;;;;;;;26.40;32.09;100950.27;1795537;79;21490;-59
2021/08/23 13:08:34;;;;;;;6.47;2.87;;;;;;;26.50;32.10;100953.73;1775245;78;21196;-58
2021/08/23 13:11:39;;;;;;;8.68;3.92;;;;;;;26.62;32.62;100955.80;1797235;79;21797;-59
2021/08/23 13:14:44;;;;;;;3.30;2.20;;;;;;;26.69;32.27;100957.88;1761809;80;21340;-57
2021/08/23 13:17:52;;;;;;;8.75;4.35;;;;;;;26.71;31.85;100960.70;1765401;80;21203;-59
2021/08/23 13:21:00;;;;;;;7.00;2.90;;;;;;;26.70;32.13;100965.19;1785266;80;21240;-57
2021/08/23 13:24:06;;;;;;;9.28;5.70;;;;;;;26.64;32.42;100962.87;1760452;80;21192;-59
2021/08/23 13:27:12;;;;;;;5.70;2.58;;;;;;;26.59;32.07;100965.63;1793002;79;21196;-58
2021/08/23 13:30:18;;;;;;;3.83;2.15;;;;;;;26.54;32.10;100950.13;1794794;79;21868;-57
2021/08/23 13:33:23;;;;;;;6.15;2.58;;;;;;;26.53;32.06;100951.22;1800290;78;21219;-57
2021/08/23 13:36:29;;;;;;;6.17;3.20;;;;;;;26.54;32.35;100947.31;1782379;79;21236;-58
2021/08/23 13:39:34;;;;;;;9.25;3.70;;;;;;;26.56;32.62;100943.66;1733225;82;21755;-58
2021/08/23 13:42:40;;;;;;;8.63;2.77;;;;;;;26.58;32.61;100937.77;1712790;82;21354;-58
2021/08/23 13:45:47;;;;;;;6.42;3.00;;;;;;;26.59;32.57;100940.34;1718326;82;21189;-59
2021/08/23 13:48:52;;;;;;;7.83;3.50;;;;;;;26.60;33.04;100937.81;1724592;81;21833;-59
2021/08/23 13:51:57;;;;;;;10.82;3.60;;;;;;;26.59;32.61;100943.16;1789382;79;21211;-56
2021/08/23 13:55:03;;;;;;;4.28;2.30;;;;;;;26.50;32.90;100944.73;1781648;79;21354;-57
2021/08/23 13:58:09;;;;;;;6.28;2.75;;;;;;;26.44;32.57;100940.19;1794492;79;21821;-58
2021/08/23 14:01:15;;;;;;;6.97;2.77;;;;;;;26.48;32.45;100949.22;1766068;80;21181;-58
2021/08/23 14:04:24;;;;;;;7.47;2.83;;;;;;;26.54;33.10;100945.91;1752644;80;21201;-57
2021/08/23 14:07:34;;;;;;;5.55;2.90;;;;;;;26.61;32.77;100942.30;1753011;80;21566;-57
2021/08/23 14:10:40;;;;;;;4.97;2.90;;;;;;;26.63;32.40;100946.25;1702786;82;21220;-57
2021/08/23 14:13:47;;;;;;;4.70;3.00;;;;;;;26.65;32.02;100943.52;1778421;80;21886;-58
2021/08/23 14:16:53;;;;;;;5.67;2.40;;;;;;;26.66;32.17;100936.77;1760427;79;21162;-58
2021/08/23 14:19:59;;;;;;;3.55;2.47;;;;;;;26.63;31.61;100938.68;1737380;80;21780;-60
2021/08/23 14:23:06;;;;;;;4.47;2.42;;;;;;;26.61;31.74;100937.27;1739189;81;21743;-56
2021/08/23 14:26:11;;;;;;;4.42;2.72;;;;;;;26.62;31.59;100953.86;1767836;80;21244;-57
2021/08/23 14:29:16;;;;;;;4.78;2.83;;;;;;;26.65;31.44;100950.55;1765258;80;21275;-57